Time;durP1;ratioP1;P1;durP2;ratioP2;P2;SDS_P1;SDS_P2;PMS_P1;PMS_P2;Temp;Humidity;BMP_temperature;BMP_pressure;BME280_temperature;BME280_humidity;BME280_pressure;Samples;Min_cycle;Max_cycle;Signal;HPM_P1;HPM_P2
2022/12/12 00:03:14;;;;;;;17.00;6.90;;;21.90;59.50;;;;;;215558;1280;22451;-55
2022/12/12 00:08:18;;;;;;;19.20;7.90;;;21.90;59.60;;;;;;215413;1288;23999;-54
2022/12/12 00:13:22;;;;;;;13.40;6.10;;;21.80;62.10;;;;;;214974;1278;393552;-53
2022/12/12 00:18:26;;;;;;;19.00;7.20;;;21.80;62.70;;;;;;215493;1289;24002;-53
2022/12/12 00:23:30;;;;;;;21.40;7.80;;;21.70;62.60;;;;;;215362;1285;23970;-53
2022/12/12 00:28:34;;;;;;;17.90;7.30;;;21.60;62.00;;;;;;215046;1298;24165;-54
2022/12/12 00:33:38;;;;;;;15.20;6.60;;;21.60;61.80;;;;;;217360;1282;22503;-54
2022/12/12 00:38:42;;;;;;;17.50;7.40;;;21.50;62.20;;;;;;215841;1276;25397;-54
2022/12/12 00:43:46;;;;;;;15.30;7.00;;;21.50;62.00;;;;;;215262;1276;22474;-53
2022/12/12 00:48:53;;;;;;;15.20;7.50;;;21.50;61.60;;;;;;222857;1281;22112;-54
2022/12/12 00:53:58;;;;;;;16.80;6.80;;;21.40;61.30;;;;;;218811;1289;22520;-54
2022/12/12 00:59:03;;;;;;;18.40;7.30;;;21.40;61.50;;;;;;215153;1279;22559;-54
2022/12/12 01:04:07;;;;;;;17.10;6.00;;;21.30;61.20;;;;;;223785;1278;22085;-55
2022/12/12 01:09:10;;;;;;;17.70;6.80;;;21.30;60.70;;;;;;216797;1279;22910;-54
2022/12/12 01:14:14;;;;;;;18.00;6.90;;;21.20;61.00;;;;;;215773;1285;25525;-55
2022/12/12 01:19:18;;;;;;;13.60;6.50;;;21.10;60.50;;;;;;215531;1277;25433;-53
2022/12/12 01:24:22;;;;;;;15.90;6.80;;;21.10;60.40;;;;;;215551;1277;24212;-55
2022/12/12 01:29:26;;;;;;;14.90;6.50;;;21.10;60.50;;;;;;215511;1274;25523;-52
2022/12/12 01:34:29;;;;;;;13.50;6.80;;;21.10;60.30;;;;;;215527;1275;24318;-55
2022/12/12 01:39:33;;;;;;;11.10;6.10;;;21.00;60.20;;;;;;215557;1282;25298;-54
2022/12/12 01:44:39;;;;;;;15.50;5.90;;;20.90;60.10;;;;;;215547;1297;25309;-55
2022/12/12 01:49:53;;;;;;;10.80;5.30;;;20.90;60.00;;;;;;215358;1277;23915;-55
2022/12/12 01:55:01;;;;;;;12.20;6.80;;;20.80;60.10;;;;;;222850;1288;22936;-53
2022/12/12 02:00:07;;;;;;;8.80;5.30;;;20.80;60.00;;;;;;220066;1282;24391;-54
2022/12/12 02:05:29;;;;;;;12.60;6.80;;;20.80;59.80;;;;;;215430;1275;25407;-55
2022/12/12 02:10:34;;;;;;;13.70;5.80;;;20.90;59.70;;;;;;215649;1293;22520;-54
2022/12/12 02:16:00;;;;;;;11.70;5.70;;;21.40;58.90;;;;;;215236;1272;22590;-55
2022/12/12 02:21:20;;;;;;;11.10;5.20;;;21.80;57.70;;;;;;215549;1298;24342;-54
2022/12/12 02:27:00;;;;;;;9.60;5.20;;;22.10;57.10;;;;;;215520;1275;24243;-54
2022/12/12 02:32:16;;;;;;;9.60;5.10;;;22.20;56.20;;;;;;215432;1285;24239;-54
2022/12/12 02:37:31;;;;;;;9.00;5.70;;;22.40;55.50;;;;;;215536;1276;22505;-54
2022/12/12 02:42:53;;;;;;;10.20;5.20;;;22.60;55.10;;;;;;215496;1272;24254;-52
2022/12/12 02:48:03;;;;;;;11.40;5.70;;;22.60;55.00;;;;;;215519;1283;22614;-54
2022/12/12 02:53:07;;;;;;;9.60;5.20;;;22.80;54.60;;;;;;215516;1269;24239;-54
2022/12/12 02:58:12;;;;;;;9.60;5.20;;;22.80;54.50;;;;;;215667;1277;22522;-53
2022/12/12 03:09:11;;;;;;;8.60;4.70;;;22.90;54.30;;;;;;215452;1272;24464;-53
2022/12/12 03:15:00;;;;;;;8.70;5.00;;;22.90;54.30;;;;;;215532;1279;25202;-53
2022/12/12 03:20:14;;;;;;;9.90;4.80;;;22.90;54.60;;;;;;213892;1306;23914;-54
2022/12/12 03:25:26;;;;;;;9.90;4.70;;;22.90;54.00;;;;;;215161;1282;25335;-55
2022/12/12 03:30:36;;;;;;;9.00;4.30;;;23.00;54.00;;;;;;215544;1272;27625;-54
2022/12/12 03:35:48;;;;;;;8.70;4.90;;;23.00;53.90;;;;;;215528;1282;22666;-54
2022/12/12 03:40:55;;;;;;;7.30;4.60;;;23.00;53.70;;;;;;215443;1277;22475;-54
2022/12/12 03:46:21;;;;;;;8.90;4.60;;;23.00;53.80;;;;;;215319;1279;23602;-54
2022/12/12 03:51:30;;;;;;;10.50;5.00;;;22.90;54.10;;;;;;215240;1281;22459;-53
2022/12/12 03:56:53;;;;;;;8.70;4.50;;;22.70;54.90;;;;;;215849;1282;22888;-58
2022/12/12 04:02:09;;;;;;;8.30;4.40;;;22.50;54.60;;;;;;215040;1278;22496;-53
2022/12/12 04:07:35;;;;;;;8.50;4.80;;;22.50;54.70;;;;;;215436;1283;24216;-54
2022/12/12 04:13:15;;;;;;;8.00;4.30;;;22.30;55.00;;;;;;215609;1276;25543;-52
2022/12/12 04:18:41;;;;;;;7.70;4.70;;;22.30;55.30;;;;;;215060;1288;22622;-54
2022/12/12 04:23:51;;;;;;;8.50;4.60;;;22.10;55.30;;;;;;215584;1285;22738;-55
2022/12/12 04:29:08;;;;;;;6.10;3.80;;;22.00;55.60;;;;;;215404;1298;23902;-54
2022/12/12 04:34:21;;;;;;;6.70;4.30;;;21.90;55.60;;;;;;215577;1283;25547;-52
2022/12/12 04:39:26;;;;;;;8.90;4.60;;;21.80;55.70;;;;;;215482;1279;24355;-54
2022/12/12 04:44:34;;;;;;;8.40;4.40;;;21.80;55.70;;;;;;215309;1276;22461;-55
2022/12/12 04:49:39;;;;;;;8.00;4.00;;;21.70;56.20;;;;;;215508;1283;22471;-54
2022/12/12 04:55:02;;;;;;;8.90;4.40;;;21.60;56.10;;;;;;215525;1273;22621;-55
2022/12/12 05:00:08;;;;;;;10.00;5.00;;;21.60;56.00;;;;;;215488;1283;24372;-54
2022/12/12 05:05:28;;;;;;;6.40;4.30;;;21.50;56.00;;;;;;215526;1277;24245;-54
2022/12/12 05:10:32;;;;;;;6.50;4.20;;;21.50;56.10;;;;;;215415;1275;25935;-54
2022/12/12 05:15:36;;;;;;;7.00;4.30;;;21.40;56.10;;;;;;215528;1276;24244;-54
2022/12/12 05:20:47;;;;;;;7.80;4.70;;;21.40;56.20;;;;;;215350;1291;26457;-53
2022/12/12 05:25:51;;;;;;;6.60;4.10;;;21.30;56.20;;;;;;215566;1285;22699;-53
2022/12/12 05:30:55;;;;;;;7.60;4.10;;;21.30;56.60;;;;;;215566;1283;24246;-55
2022/12/12 05:35:59;;;;;;;6.80;3.70;;;21.40;56.60;;;;;;215490;1280;23850;-55
2022/12/12 05:41:04;;;;;;;6.00;4.00;;;21.70;55.60;;;;;;215565;1276;24218;-54
2022/12/12 05:46:08;;;;;;;5.50;3.50;;;22.00;54.80;;;;;;215643;1291;23853;-54
2022/12/12 05:51:12;;;;;;;6.10;3.90;;;22.20;54.40;;;;;;215532;1275;22538;-54
2022/12/12 05:56:15;;;;;;;6.10;4.20;;;22.40;54.00;;;;;;215491;1275;22983;-57
2022/12/12 06:01:19;;;;;;;5.60;3.60;;;22.50;54.00;;;;;;215521;1281;23832;-54
2022/12/12 06:06:24;;;;;;;5.70;3.50;;;22.60;53.40;;;;;;215590;1276;24030;-55
2022/12/12 06:11:29;;;;;;;5.70;3.70;;;22.70;53.20;;;;;;215537;1275;22542;-54
2022/12/12 06:16:37;;;;;;;6.80;3.90;;;22.80;52.90;;;;;;215569;1288;22461;-52
2022/12/12 06:21:46;;;;;;;7.90;4.30;;;22.80;52.70;;;;;;215491;1276;24334;-53
2022/12/12 06:26:50;;;;;;;6.50;3.60;;;22.90;52.70;;;;;;215544;1276;22462;-53
2022/12/12 06:31:53;;;;;;;7.40;3.70;;;22.90;52.60;;;;;;215428;1282;22546;-54
2022/12/12 06:37:01;;;;;;;7.00;3.80;;;22.90;52.60;;;;;;215420;1275;22518;-55
2022/12/12 06:42:07;;;;;;;6.60;3.90;;;22.90;52.90;;;;;;215475;1282;23388;-54
2022/12/12 06:47:11;;;;;;;6.00;4.10;;;22.90;52.50;;;;;;215450;1279;23181;-53
2022/12/12 06:52:15;;;;;;;6.40;3.70;;;22.90;52.50;;;;;;215577;1276;25551;-54
2022/12/12 06:57:19;;;;;;;7.20;4.10;;;22.90;52.40;;;;;;215314;1269;23230;-52
2022/12/12 07:02:23;;;;;;;6.80;3.20;;;23.00;52.70;;;;;;216686;1276;22505;-53
2022/12/12 07:07:33;;;;;;;4.90;3.60;;;23.00;52.60;;;;;;215480;1294;22457;-53
2022/12/12 07:12:36;;;;;;;8.50;3.90;;;23.10;52.50;;;;;;215282;1292;24172;-55
2022/12/12 07:17:40;;;;;;;5.70;3.10;;;23.00;52.90;;;;;;215173;1283;24195;-53
2022/12/12 07:22:44;;;;;;;7.20;3.80;;;22.90;53.30;;;;;;215011;1276;23847;-52
2022/12/12 07:27:48;;;;;;;10.20;3.90;;;22.80;53.20;;;;;;215136;1273;24567;-55
2022/12/12 07:32:52;;;;;;;7.90;3.80;;;22.60;54.10;;;;;;215217;1292;22601;-54
2022/12/12 07:38:02;;;;;;;8.30;3.80;;;22.50;55.00;;;;;;215106;1273;24285;-55
2022/12/12 07:43:06;;;;;;;7.40;3.70;;;22.50;53.80;;;;;;214990;1276;22474;-56
2022/12/12 07:48:13;;;;;;;8.80;3.80;;;22.40;54.30;;;;;;215499;1276;26682;-54
2022/12/12 07:53:17;;;;;;;7.60;3.70;;;22.30;53.90;;;;;;215365;1285;22860;-54
2022/12/12 07:58:21;;;;;;;14.00;4.60;;;22.20;53.60;;;;;;215175;1278;25035;-55
2022/12/12 08:03:36;;;;;;;10.20;4.30;;;22.10;54.00;;;;;;215115;1275;22596;-56
2022/12/12 08:08:45;;;;;;;13.50;4.90;;;22.00;53.70;;;;;;215295;1276;22475;-54
2022/12/12 08:13:51;;;;;;;20.70;5.90;;;22.00;54.10;;;;;;215335;1283;23475;-55
2022/12/12 08:18:56;;;;;;;12.50;4.60;;;21.90;53.90;;;;;;215652;1279;22472;-56
2022/12/12 08:24:01;;;;;;;7.10;4.30;;;21.70;54.50;;;;;;215597;1271;25627;-55
2022/12/12 08:29:10;;;;;;;14.90;5.20;;;21.60;53.30;;;;;;215561;1278;24687;-56
2022/12/12 08:34:17;;;;;;;9.90;4.70;;;21.60;53.50;;;;;;215580;1285;24247;-56
2022/12/12 08:39:24;;;;;;;11.20;4.70;;;21.50;52.60;;;;;;215682;1277;22527;-57
2022/12/12 08:44:28;;;;;;;13.60;4.70;;;21.40;52.60;;;;;;215508;1295;22547;-55
2022/12/12 08:49:33;;;;;;;9.40;4.90;;;21.30;52.60;;;;;;215168;1283;22591;-54
2022/12/12 08:54:40;;;;;;;11.10;5.00;;;21.20;52.70;;;;;;215071;1297;22487;-54
2022/12/12 08:59:44;;;;;;;7.30;4.00;;;21.10;52.80;;;;;;215537;1277;23762;-55
2022/12/12 09:04:50;;;;;;;6.90;4.40;;;21.30;52.10;;;;;;215586;1286;24399;-56
2022/12/12 09:09:54;;;;;;;7.80;4.20;;;21.60;51.30;;;;;;215496;1275;22726;-57
2022/12/12 09:15:02;;;;;;;8.20;4.40;;;21.80;51.10;;;;;;215528;1288;22467;-54
2022/12/12 09:20:07;;;;;;;5.60;4.10;;;22.00;50.50;;;;;;215463;1269;22460;-55
2022/12/12 09:25:10;;;;;;;6.30;3.70;;;22.20;50.10;;;;;;215554;1269;24243;-55
2022/12/12 09:30:15;;;;;;;5.80;4.00;;;22.30;49.40;;;;;;215450;1276;25343;-54
2022/12/12 09:35:19;;;;;;;7.30;3.70;;;22.40;49.10;;;;;;215382;1266;23852;-56
2022/12/12 09:40:53;;;;;;;6.10;3.80;;;22.40;49.00;;;;;;215423;1276;24263;-55
2022/12/12 09:45:58;;;;;;;7.40;3.80;;;22.50;48.90;;;;;;215765;1283;22693;-54
2022/12/12 09:51:03;;;;;;;8.70;4.20;;;22.50;49.40;;;;;;215469;1277;22559;-55
2022/12/12 09:56:30;;;;;;;8.00;4.60;;;22.60;48.80;;;;;;215614;1269;24257;-55
2022/12/12 10:01:38;;;;;;;9.50;4.40;;;22.70;48.40;;;;;;215215;1276;24915;-55
2022/12/12 10:06:57;;;;;;;8.40;4.20;;;22.70;50.10;;;;;;215496;1272;24348;-56
2022/12/12 10:12:05;;;;;;;8.00;4.40;;;22.60;50.20;;;;;;215555;1272;24318;-56
2022/12/12 10:17:16;;;;;;;8.00;3.50;;;22.50;51.50;;;;;;215570;1269;22458;-54
2022/12/12 10:22:31;;;;;;;7.90;4.10;;;22.50;51.50;;;;;;215342;1276;22453;-56
2022/12/12 10:27:35;;;;;;;7.00;3.80;;;22.60;51.10;;;;;;215639;1272;24288;-59
2022/12/12 10:32:50;;;;;;;6.50;3.80;;;22.60;52.20;;;;;;215420;1276;24548;-55
2022/12/12 10:38:31;;;;;;;6.10;3.60;;;22.70;52.10;;;;;;215434;1269;23883;-55
2022/12/12 10:43:48;;;;;;;5.40;3.80;;;22.70;51.40;;;;;;215553;1283;26692;-56
2022/12/12 10:48:53;;;;;;;5.20;3.60;;;22.70;51.20;;;;;;215482;1276;23869;-55
2022/12/12 10:54:00;;;;;;;5.20;4.10;;;22.70;52.00;;;;;;215521;1275;24178;-55
2022/12/12 10:59:06;;;;;;;5.20;3.60;;;22.70;51.50;;;;;;215515;1279;24767;-57
2022/12/12 11:04:13;;;;;;;4.90;3.70;;;22.60;52.20;;;;;;215433;1279;22494;-55
2022/12/12 11:09:22;;;;;;;5.60;4.00;;;22.60;51.70;;;;;;215687;1276;26520;-56
2022/12/12 11:14:43;;;;;;;5.50;3.40;;;22.70;51.80;;;;;;215533;1276;22474;-57
2022/12/12 11:19:48;;;;;;;9.00;3.80;;;22.70;52.20;;;;;;215603;1270;23933;-56
2022/12/12 11:24:53;;;;;;;6.50;3.80;;;22.70;51.90;;;;;;215526;1283;25324;-56
2022/12/12 11:30:01;;;;;;;4.80;3.40;;;22.80;51.50;;;;;;215478;1274;24355;-54
2022/12/12 11:35:21;;;;;;;5.50;3.40;;;22.80;51.40;;;;;;215367;1282;22826;-57
2022/12/12 11:40:28;;;;;;;6.90;3.30;;;23.00;53.00;;;;;;215507;1266;24220;-56
2022/12/12 11:45:45;;;;;;;6.00;3.40;;;23.00;53.20;;;;;;215465;1275;24375;-56
2022/12/12 11:50:56;;;;;;;5.30;3.20;;;22.90;52.80;;;;;;215547;1272;22467;-55
2022/12/12 11:56:12;;;;;;;4.80;3.80;;;22.60;54.60;;;;;;215577;1275;23791;-54
2022/12/12 12:01:47;;;;;;;4.40;3.10;;;22.40;55.10;;;;;;215567;1276;25083;-55
2022/12/12 12:07:04;;;;;;;4.30;3.20;;;22.20;56.20;;;;;;215574;1269;22464;-56
2022/12/12 12:12:10;;;;;;;4.60;3.50;;;22.00;56.30;;;;;;215480;1276;176022;-54
2022/12/12 12:17:31;;;;;;;6.00;3.70;;;21.90;56.00;;;;;;215579;1293;22509;-55
2022/12/12 12:23:12;;;;;;;7.80;3.70;;;21.70;58.20;;;;;;215618;1288;22571;-55
2022/12/12 12:29:03;;;;;;;5.70;3.70;;;21.60;58.40;;;;;;215414;1282;23058;-56
2022/12/12 12:34:26;;;;;;;4.90;3.70;;;21.50;58.30;;;;;;215658;1272;22459;-54
2022/12/12 12:39:50;;;;;;;7.40;3.60;;;21.50;59.20;;;;;;215510;1291;23884;-54
2022/12/12 12:45:11;;;;;;;6.40;3.50;;;21.40;59.70;;;;;;215535;1294;25298;-52
2022/12/12 12:50:28;;;;;;;5.10;3.60;;;21.30;59.10;;;;;;215414;1282;24247;-55
2022/12/12 12:55:44;;;;;;;5.30;3.30;;;21.20;59.00;;;;;;215809;1275;22490;-54
2022/12/12 13:01:01;;;;;;;4.50;3.30;;;21.20;57.00;;;;;;215573;1272;22477;-54
2022/12/12 13:06:18;;;;;;;5.50;3.40;;;21.20;56.40;;;;;;215571;1292;22656;-54
2022/12/12 13:11:54;;;;;;;5.50;3.80;;;21.20;56.00;;;;;;215518;1283;22585;-56
2022/12/12 13:17:06;;;;;;;4.30;3.40;;;21.10;57.00;;;;;;215201;1275;24231;-56
2022/12/12 13:22:26;;;;;;;4.90;3.10;;;21.00;57.30;;;;;;215178;1275;23917;-53
2022/12/12 13:27:37;;;;;;;4.40;3.10;;;21.30;56.20;;;;;;215270;1284;25500;-56
2022/12/12 13:33:15;;;;;;;4.80;3.20;;;21.60;56.00;;;;;;215298;1275;22588;-55
2022/12/12 13:38:31;;;;;;;4.20;2.50;;;21.70;55.80;;;;;;215424;1286;23850;-55
2022/12/12 13:43:37;;;;;;;3.90;2.90;;;21.90;55.00;;;;;;215374;1283;23798;-54
2022/12/12 13:49:04;;;;;;;4.60;3.10;;;22.00;53.90;;;;;;215445;1281;24866;-54
2022/12/12 13:54:10;;;;;;;5.10;3.60;;;22.20;54.40;;;;;;215139;1292;24293;-52
2022/12/12 13:59:20;;;;;;;4.10;2.50;;;22.10;53.90;;;;;;215089;1284;22546;-53
2022/12/12 14:04:24;;;;;;;3.70;2.90;;;22.00;53.90;;;;;;215084;1286;22475;-54
2022/12/12 14:09:33;;;;;;;3.70;2.60;;;22.10;55.10;;;;;;215197;1285;25236;-53
2022/12/12 14:14:57;;;;;;;4.40;2.80;;;22.10;54.10;;;;;;215212;1281;22623;-53
2022/12/12 14:20:02;;;;;;;4.20;2.90;;;22.10;54.20;;;;;;215071;1283;23882;-54
2022/12/12 14:25:18;;;;;;;4.60;2.50;;;22.20;53.60;;;;;;215451;1282;25876;-55
2022/12/12 14:30:55;;;;;;;4.40;2.80;;;22.20;53.50;;;;;;215138;1280;25411;-54
2022/12/12 14:36:35;;;;;;;3.60;2.50;;;22.30;52.90;;;;;;215186;1287;22661;-51
2022/12/12 14:41:46;;;;;;;4.50;2.90;;;22.30;53.40;;;;;;215244;1293;25443;-55
2022/12/12 14:46:52;;;;;;;3.50;2.20;;;22.30;53.10;;;;;;215414;1277;24230;-53
2022/12/12 14:51:57;;;;;;;4.70;2.80;;;22.40;52.50;;;;;;215363;1269;24250;-55
2022/12/12 14:57:06;;;;;;;3.60;2.40;;;22.40;52.00;;;;;;215559;1276;22519;-53
2022/12/12 15:02:40;;;;;;;4.40;2.50;;;22.40;52.10;;;;;;215430;1289;25276;-55
2022/12/12 15:07:45;;;;;;;4.30;2.60;;;22.40;52.10;;;;;;215582;1282;22484;-52
2022/12/12 15:12:50;;;;;;;4.20;2.30;;;22.50;51.70;;;;;;215608;1286;25488;-52
2022/12/12 15:17:58;;;;;;;3.90;2.60;;;22.50;51.30;;;;;;215484;1281;24327;-50
2022/12/12 15:23:04;;;;;;;3.60;2.40;;;22.50;51.10;;;;;;215332;1294;24357;-54
2022/12/12 15:28:14;;;;;;;4.40;2.60;;;22.50;51.10;;;;;;215440;1294;26537;-54
2022/12/12 15:33:23;;;;;;;4.20;2.80;;;22.60;50.80;;;;;;215274;1298;23848;-54
2022/12/12 15:38:31;;;;;;;4.50;2.60;;;22.60;50.80;;;;;;215133;1281;24180;-55
2022/12/12 15:43:38;;;;;;;5.40;3.10;;;22.70;50.70;;;;;;215533;1276;22474;-54
2022/12/12 15:48:52;;;;;;;9.10;2.50;;;22.70;50.70;;;;;;215019;1276;24251;-54
2022/12/12 15:54:01;;;;;;;7.10;2.80;;;22.70;51.00;;;;;;214772;1276;24247;-52
2022/12/12 15:59:07;;;;;;;4.80;2.80;;;22.80;50.30;;;;;;215077;1281;22683;-51
2022/12/12 16:04:16;;;;;;;5.60;2.30;;;22.90;50.30;;;;;;214945;1286;24994;-54
2022/12/12 16:09:25;;;;;;;6.00;2.60;;;22.90;50.00;;;;;;215176;1276;26585;-55
2022/12/12 16:14:37;;;;;;;10.30;4.20;;;23.00;51.60;;;;;;215383;1273;22476;-52
2022/12/12 16:20:01;;;;;;;7.20;3.30;;;22.90;51.70;;;;;;215514;1280;22468;-52
2022/12/12 16:25:15;;;;;;;8.20;3.90;;;22.90;52.40;;;;;;215352;1272;24303;-53
2022/12/12 16:30:19;;;;;;;6.70;3.50;;;22.80;53.00;;;;;;215542;1275;22484;-53
2022/12/12 16:35:23;;;;;;;9.80;4.60;;;22.70;54.70;;;;;;215382;1274;22485;-55
2022/12/12 16:40:32;;;;;;;6.00;3.30;;;22.70;56.50;;;;;;215443;1274;25333;-52
2022/12/12 16:45:36;;;;;;;15.20;4.70;;;22.60;56.60;;;;;;215293;1276;23051;-52
2022/12/12 16:50:48;;;;;;;11.60;4.00;;;22.60;56.80;;;;;;215420;1285;24244;-52
2022/12/12 16:55:55;;;;;;;9.20;3.90;;;22.50;55.80;;;;;;215513;1280;24262;-53
2022/12/12 17:01:00;;;;;;;7.80;3.60;;;22.40;55.30;;;;;;215448;1297;22704;-53
2022/12/12 17:06:06;;;;;;;10.60;3.90;;;22.30;54.70;;;;;;215545;1269;23050;-53
2022/12/12 17:11:11;;;;;;;5.50;3.00;;;22.20;55.30;;;;;;215478;1282;26579;-51
2022/12/12 17:16:16;;;;;;;7.20;2.80;;;22.10;54.30;;;;;;215480;1279;24294;-53
2022/12/12 17:21:32;;;;;;;11.10;3.50;;;22.00;54.10;;;;;;215600;1282;22588;-54
2022/12/12 17:26:38;;;;;;;8.30;3.40;;;22.00;54.90;;;;;;215445;1276;25341;-53
2022/12/12 17:31:42;;;;;;;5.70;2.80;;;21.90;54.90;;;;;;215231;1281;24234;-54
2022/12/12 17:36:49;;;;;;;4.60;2.70;;;21.80;54.60;;;;;;215665;1275;22471;-55
2022/12/12 17:42:18;;;;;;;4.30;2.70;;;21.70;53.90;;;;;;215384;1275;25434;-54
2022/12/12 17:47:23;;;;;;;5.30;2.70;;;21.60;54.20;;;;;;215462;1289;24272;-55
2022/12/12 17:52:27;;;;;;;11.80;2.70;;;21.50;54.20;;;;;;215136;1285;22460;-54
2022/12/12 17:57:34;;;;;;;7.80;2.70;;;21.50;54.40;;;;;;215412;1275;24247;-53
2022/12/12 18:02:43;;;;;;;15.20;2.90;;;21.40;53.70;;;;;;215214;1289;25349;-53
2022/12/12 18:07:53;;;;;;;6.50;3.10;;;21.40;53.70;;;;;;215621;1276;23784;-54
2022/12/12 18:12:58;;;;;;;7.80;3.20;;;21.30;53.80;;;;;;215291;1295;25308;-53
2022/12/12 18:18:06;;;;;;;9.00;3.00;;;21.20;53.80;;;;;;215263;1275;22471;-56
2022/12/12 18:23:13;;;;;;;14.40;2.90;;;21.20;53.70;;;;;;215121;1291;24345;-55
2022/12/12 18:28:35;;;;;;;10.30;2.80;;;21.10;53.60;;;;;;215267;1276;26224;-56
2022/12/12 18:33:58;;;;;;;26.30;4.50;;;21.10;53.50;;;;;;214826;1291;24254;-56
2022/12/12 18:39:21;;;;;;;15.80;2.50;;;21.00;53.50;;;;;;214927;1285;22465;-56
2022/12/12 18:44:33;;;;;;;8.70;2.40;;;21.10;53.20;;;;;;214942;1284;22465;-57
2022/12/12 18:49:37;;;;;;;8.50;2.60;;;21.50;52.20;;;;;;214760;1274;22805;-56
2022/12/12 18:54:41;;;;;;;6.90;2.40;;;21.70;51.20;;;;;;214972;1286;22841;-56
2022/12/12 18:59:46;;;;;;;14.60;2.50;;;21.80;51.30;;;;;;214913;1281;24012;-56
2022/12/12 19:05:05;;;;;;;5.20;2.80;;;22.00;50.50;;;;;;214875;1276;22579;-56
2022/12/12 19:10:14;;;;;;;12.10;4.60;;;22.10;50.90;;;;;;215026;1275;25677;-56
2022/12/12 19:15:41;;;;;;;;;;;;;;;;;;;;;
2022/12/12 19:20:46;;;;;;;6.70;3.40;;;22.30;50.80;;;;;;215463;1272;22451;-55
2022/12/12 19:26:12;;;;;;;9.70;3.10;;;22.40;50.40;;;;;;215333;1272;22514;-57
2022/12/12 19:31:21;;;;;;;10.70;3.10;;;22.40;50.50;;;;;;215107;1275;22596;-56
2022/12/12 19:36:26;;;;;;;11.90;3.20;;;22.50;50.10;;;;;;215374;1272;24459;-56
2022/12/12 19:41:31;;;;;;;10.20;3.20;;;22.50;50.30;;;;;;215519;1280;22477;-57
2022/12/12 19:46:40;;;;;;;6.10;2.90;;;22.60;50.00;;;;;;215495;1272;22587;-56
2022/12/12 19:51:47;;;;;;;8.40;3.00;;;22.60;50.30;;;;;;215623;1276;23190;-56
2022/12/12 19:56:53;;;;;;;13.10;2.70;;;22.60;49.90;;;;;;215421;1272;22486;-55
2022/12/12 20:01:59;;;;;;;7.30;2.80;;;22.60;49.70;;;;;;215597;1276;25556;-55
2022/12/12 20:07:05;;;;;;;6.20;2.60;;;22.40;50.10;;;;;;215431;1272;22618;-57
2022/12/12 20:12:16;;;;;;;12.00;2.90;;;22.30;50.30;;;;;;215487;1272;23910;-56
2022/12/12 20:17:22;;;;;;;7.80;2.50;;;22.20;50.10;;;;;;215114;1277;22751;-56
2022/12/12 20:22:27;;;;;;;13.40;3.40;;;22.00;50.20;;;;;;215552;1272;25254;-57
2022/12/12 20:27:42;;;;;;;7.40;2.90;;;22.00;50.50;;;;;;215419;1273;22491;-59
2022/12/12 20:32:53;;;;;;;8.90;3.10;;;22.00;50.70;;;;;;215525;1275;24295;-58
2022/12/12 20:38:26;;;;;;;8.80;3.30;;;22.00;50.70;;;;;;215556;1272;22470;-56
2022/12/12 20:44:03;;;;;;;14.20;4.10;;;21.90;51.00;;;;;;215511;1277;25273;-56
2022/12/12 20:49:27;;;;;;;11.40;3.40;;;21.80;51.00;;;;;;215136;1269;22709;-55
2022/12/12 20:54:39;;;;;;;11.90;3.60;;;21.70;51.00;;;;;;215528;1289;22513;-57
2022/12/12 20:59:59;;;;;;;10.60;3.50;;;21.60;50.20;;;;;;215544;1275;24220;-57
2022/12/12 21:05:10;;;;;;;18.40;4.50;;;21.60;50.90;;;;;;215578;1286;22589;-55
2022/12/12 21:10:29;;;;;;;13.80;4.10;;;21.50;50.80;;;;;;215541;1276;24307;-52
2022/12/12 21:15:44;;;;;;;17.00;4.60;;;21.50;50.80;;;;;;215269;1272;22529;-56
2022/12/12 21:20:57;;;;;;;;;;;21.40;51.20;;;;;;215525;1276;22479;-53
2022/12/12 21:26:11;;;;;;;12.40;3.90;;;21.30;51.30;;;;;;215273;1269;22510;-55
2022/12/12 21:31:30;;;;;;;13.80;3.70;;;21.20;52.40;;;;;;215322;1272;24399;-56
2022/12/12 21:37:05;;;;;;;13.20;3.90;;;21.20;52.10;;;;;;215516;1277;25305;-56
2022/12/12 21:42:29;;;;;;;19.20;4.50;;;21.10;52.10;;;;;;215454;1276;22456;-57
2022/12/12 21:47:40;;;;;;;24.40;4.70;;;21.00;53.20;;;;;;215455;1269;24266;-57
2022/12/12 21:58:37;;;;;;;16.00;4.40;;;20.90;56.00;;;;;;215506;1269;22499;-59
2022/12/12 22:04:09;;;;;;;10.70;4.40;;;20.90;56.10;;;;;;215485;1275;22639;-56
2022/12/12 22:09:27;;;;;;;15.70;4.30;;;20.80;55.60;;;;;;215255;1276;22590;-57
2022/12/12 22:14:32;;;;;;;9.30;4.10;;;21.00;54.90;;;;;;215433;1296;25364;-57
2022/12/12 22:19:36;;;;;;;11.60;3.90;;;21.30;54.10;;;;;;215430;1277;22461;-57
2022/12/12 22:24:44;;;;;;;10.30;3.80;;;21.50;53.90;;;;;;215500;1283;22477;-56
2022/12/12 22:29:49;;;;;;;12.20;3.40;;;21.70;55.50;;;;;;215569;1282;24549;-56
2022/12/12 22:34:54;;;;;;;9.60;3.30;;;22.20;56.50;;;;;;215612;1283;23254;-57
2022/12/12 22:40:01;;;;;;;12.80;3.50;;;22.40;55.10;;;;;;215584;1297;24209;-56
2022/12/12 22:45:06;;;;;;;10.50;3.70;;;22.50;53.40;;;;;;215522;1294;25367;-56
2022/12/12 22:50:10;;;;;;;11.20;4.30;;;22.60;53.30;;;;;;215058;1276;22840;-56
2022/12/12 22:55:14;;;;;;;7.60;3.20;;;22.60;53.20;;;;;;215247;1284;25375;-57
2022/12/12 23:00:18;;;;;;;8.10;3.60;;;22.60;53.00;;;;;;215480;1276;24001;-57
2022/12/12 23:05:25;;;;;;;8.50;3.10;;;22.60;52.90;;;;;;215301;1283;24203;-55
2022/12/12 23:10:29;;;;;;;9.00;3.30;;;22.60;52.90;;;;;;215364;1277;25273;-56
2022/12/12 23:15:37;;;;;;;6.70;3.20;;;22.60;52.90;;;;;;215385;1280;25458;-56
2022/12/12 23:20:44;;;;;;;10.80;3.00;;;22.60;52.90;;;;;;215376;1276;22605;-55
2022/12/12 23:25:48;;;;;;;7.20;3.20;;;22.50;52.80;;;;;;215519;1272;22527;-56
2022/12/12 23:30:58;;;;;;;7.90;3.00;;;22.40;53.70;;;;;;215388;1269;24024;-55
2022/12/12 23:36:14;;;;;;;9.40;3.90;;;22.30;53.20;;;;;;215436;1272;23889;-56
2022/12/12 23:41:29;;;;;;;8.90;2.70;;;22.20;53.30;;;;;;215240;1276;24337;-57
2022/12/12 23:46:37;;;;;;;6.90;2.80;;;22.10;53.50;;;;;;215618;1274;22466;-57
2022/12/12 23:51:46;;;;;;;8.80;3.40;;;22.00;53.90;;;;;;215530;1282;22794;-56
2022/12/12 23:56:51;;;;;;;6.60;3.10;;;21.90;53.90;;;;;;215563;1281;23923;-55
